Terminal Aerodrome Forecast
Issued by NWS Charleston, WV

Current Version | Previous Version | Graphics & Text | Print | Product List | Glossary On
Versions: 1 2 3 4 5 6 7 8 9 10 11 12 13 14 15 16 17 18 19 20 21
000
FTUS41 KRLX 251735
TAFEKN
TAF
KEKN 251735Z 2518/2618 28007KT P6SM SCT250
     FM260000 00000KT P6SM SCT250
     FM260800 00000KT P6SM BKN040
     FM261300 VRB03KT P6SM SKC
     FM261500 31008KT P6SM BKN050=

USA.gov is the U.S. government's official web portal to all federal, state and local government web resources and services.